createdAt,value
2022-09-21T00:04:06.600Z,24.8
2022-09-21T00:09:25.396Z,24.8
2022-09-21T00:14:43.596Z,24.8
2022-09-21T00:20:02.401Z,24.8
2022-09-21T00:25:20.860Z,24.8
2022-09-21T00:30:39.631Z,24.8
2022-09-21T00:35:57.868Z,24.8
2022-09-21T00:41:16.344Z,24.8
2022-09-21T00:46:34.828Z,24.8
2022-09-21T00:51:53.624Z,24.8
2022-09-21T00:57:11.806Z,24.8
2022-09-21T01:02:30.492Z,24.8
2022-09-21T01:07:48.712Z,24.8
2022-09-21T01:13:06.904Z,24.8
2022-09-21T01:18:25.665Z,24.8
2022-09-21T01:23:44.452Z,24.8
2022-09-21T01:29:02.914Z,24.8
2022-09-21T01:34:20.849Z,24.8
2022-09-21T01:39:39.361Z,24.8
2022-09-21T01:44:57.819Z,24.8
2022-09-21T01:50:16.041Z,24.8
2022-09-21T01:55:34.559Z,24.8
2022-09-21T02:00:52.870Z,24.8
2022-09-21T02:06:11.690Z,24.8
2022-09-21T02:11:30.533Z,24.8
2022-09-21T02:16:49.354Z,24.8
2022-09-21T02:22:07.846Z,24.8
2022-09-21T02:27:26.344Z,24.8
2022-09-21T02:32:44.813Z,24.8
2022-09-21T02:38:03.297Z,24.8
2022-09-21T02:43:22.099Z,24.8
2022-09-21T02:48:40.562Z,24.8
2022-09-21T02:53:58.772Z,24.8
2022-09-21T02:59:17.294Z,24.7
2022-09-21T03:04:35.492Z,24.7
2022-09-21T03:09:53.969Z,24.7
2022-09-21T03:15:12.492Z,24.7
2022-09-21T03:20:31.103Z,24.7
2022-09-21T03:25:49.591Z,24.7
2022-09-21T03:31:08.255Z,24.7
2022-09-21T03:36:26.577Z,24.8
2022-09-21T03:41:29.441Z,24.8
2022-09-21T03:46:47.997Z,24.8
2022-09-21T03:52:06.233Z,24.7
2022-09-21T03:57:24.718Z,24.7
2022-09-21T04:02:43.518Z,24.7
2022-09-21T04:08:01.860Z,24.7
2022-09-21T04:13:19.796Z,24.7
2022-09-21T04:18:38.599Z,24.7
2022-09-21T04:23:57.067Z,24.7
2022-09-21T04:29:15.563Z,24.7
2022-09-21T04:34:34.131Z,24.2
2022-09-21T04:39:52.610Z,23.7
2022-09-21T04:45:11.092Z,23.3
2022-09-21T04:50:29.861Z,23.5
2022-09-21T04:55:48.038Z,23.7
2022-09-21T05:01:07.039Z,23.8
2022-09-21T05:06:25.056Z,23.9
2022-09-21T05:11:43.521Z,24
2022-09-21T05:17:01.722Z,24
2022-09-21T05:22:20.239Z,24
2022-09-21T05:27:38.967Z,24
2022-09-21T05:32:57.732Z,24
2022-09-21T05:38:16.256Z,24.1
2022-09-21T05:43:34.717Z,24.1
2022-09-21T05:48:53.201Z,24.1
2022-09-21T05:54:11.700Z,24.1
2022-09-21T05:59:30.175Z,24.1
2022-09-21T06:04:48.377Z,24.2
2022-09-21T06:10:06.897Z,24.2
2022-09-21T06:15:25.348Z,24.2
2022-09-21T06:20:43.829Z,24.2
2022-09-21T06:26:02.336Z,24.2
2022-09-21T06:31:20.523Z,24.2
2022-09-21T06:36:39.283Z,24.2
2022-09-21T06:41:57.509Z,24.3
2022-09-21T06:47:15.691Z,24.3
2022-09-21T06:52:34.178Z,24.3
2022-09-21T06:57:52.710Z,24.3
2022-09-21T07:03:11.430Z,24.4
2022-09-21T07:15:23.715Z,24.4
2022-09-21T07:20:42.239Z,24.4
2022-09-21T07:26:00.765Z,24.4
2022-09-21T07:31:19.338Z,24.4
2022-09-21T07:36:37.679Z,24.4
2022-09-21T07:41:56.180Z,24.4
2022-09-21T07:47:14.693Z,24.4
2022-09-21T07:52:33.134Z,24.4
2022-09-21T07:57:51.618Z,24.5
2022-09-21T08:03:10.148Z,24.5
2022-09-21T08:08:28.871Z,24.5
2022-09-21T08:13:47.650Z,24.5
2022-09-21T08:19:06.169Z,24.5
2022-09-21T08:24:24.897Z,24.5
2022-09-21T08:29:43.097Z,24.5
2022-09-21T08:35:01.837Z,24.5
2022-09-21T08:40:20.268Z,24.5
2022-09-21T08:45:38.816Z,24.6
2022-09-21T08:50:56.879Z,24.5
2022-09-21T08:56:15.343Z,24.6
2022-09-21T09:01:34.034Z,24.6
2022-09-21T09:06:52.454Z,24.6
2022-09-21T09:12:11.639Z,24.6
2022-09-21T09:17:30.392Z,24.6
2022-09-21T09:22:49.184Z,24.6
2022-09-21T09:28:07.073Z,24.6
2022-09-21T09:33:25.554Z,24.6
2022-09-21T09:38:44.093Z,24.6
2022-09-21T09:44:02.834Z,24.6
2022-09-21T09:49:21.590Z,24.6
2022-09-21T09:54:40.094Z,24.7
2022-09-21T09:59:58.218Z,24.7
2022-09-21T10:05:16.110Z,24.7
2022-09-21T10:10:34.328Z,24.7
2022-09-21T10:15:52.644Z,24.7
2022-09-21T10:21:11.159Z,24.7
2022-09-21T10:26:29.953Z,24.8
2022-09-21T10:31:48.699Z,24.8
2022-09-21T10:37:06.909Z,24.8
2022-09-21T10:42:25.424Z,24.8
2022-09-21T10:47:43.610Z,24.8
2022-09-21T10:53:02.095Z,24.8
2022-09-21T10:58:20.342Z,24.8
2022-09-21T11:03:38.802Z,24.8
2022-09-21T11:08:57.288Z,24.8
2022-09-21T11:14:15.530Z,24.9
2022-09-21T11:19:34.023Z,24.8
2022-09-21T11:24:52.501Z,24.8
2022-09-21T11:30:11.073Z,24.8
2022-09-21T11:35:29.520Z,24.8
2022-09-21T11:40:48.283Z,24.8
2022-09-21T11:46:06.915Z,24.8
2022-09-21T11:51:25.595Z,24.8
2022-09-21T11:56:44.365Z,24.8
2022-09-21T12:02:03.225Z,24.8
2022-09-21T12:07:21.651Z,24.8
2022-09-21T12:12:40.136Z,24.7
2022-09-21T12:17:58.641Z,24.7
2022-09-21T12:23:17.372Z,24.7
2022-09-21T12:28:35.574Z,24.7
2022-09-21T12:33:54.092Z,24.7
2022-09-21T12:39:12.552Z,24.7
2022-09-21T12:44:30.747Z,24.7
2022-09-21T12:49:48.974Z,24.7
2022-09-21T12:55:07.433Z,24.7
2022-09-21T13:00:25.984Z,24.7
2022-09-21T13:05:44.496Z,24.7
2022-09-21T13:11:02.968Z,24.7
2022-09-21T13:16:21.787Z,24.7
2022-09-21T13:21:40.310Z,24.7
2022-09-21T13:26:58.770Z,24.7
2022-09-21T13:32:17.345Z,24.7
2022-09-21T13:37:35.954Z,24.7
2022-09-21T13:42:54.136Z,24.7
2022-09-21T13:48:12.340Z,24.7
2022-09-21T13:53:30.841Z,24.7
2022-09-21T13:58:49.310Z,24.6
2022-09-21T14:04:07.511Z,24.6
2022-09-21T14:09:26.394Z,24.6
2022-09-21T14:14:44.570Z,24.6
2022-09-21T14:20:03.079Z,24.6
2022-09-21T14:25:21.686Z,24.6
2022-09-21T14:30:39.869Z,24.6
2022-09-21T14:35:58.635Z,24.6
2022-09-21T14:41:17.602Z,24.6
2022-09-21T14:46:36.179Z,24.6
2022-09-21T14:52:12.249Z,24.6
2022-09-21T14:57:36.090Z,24.6
2022-09-21T15:02:54.656Z,24.5
2022-09-21T15:08:13.123Z,24.5
2022-09-21T15:13:31.647Z,24.5
2022-09-21T15:18:50.089Z,24.5
2022-09-21T15:24:08.863Z,24.5
2022-09-21T15:29:27.373Z,24.5
2022-09-21T15:34:45.837Z,24.5
2022-09-21T15:40:03.868Z,24.5
2022-09-21T15:45:22.476Z,24.5
2022-09-21T15:50:40.938Z,24.5
2022-09-21T15:55:59.695Z,24.5
2022-09-21T16:01:18.370Z,24.5
2022-09-21T16:06:37.083Z,24.5
2022-09-21T16:11:55.557Z,24.5
2022-09-21T16:17:14.065Z,24.5
2022-09-21T16:22:32.543Z,24.4
2022-09-21T16:27:50.463Z,24.5
2022-09-21T16:33:09.321Z,24.5
2022-09-21T16:38:28.173Z,24.5
2022-09-21T16:43:46.651Z,24.5
2022-09-21T16:49:05.521Z,24.4
2022-09-21T16:54:24.247Z,24.4
2022-09-21T16:59:42.449Z,24.4
2022-09-21T17:05:00.971Z,24.4
2022-09-21T17:10:18.883Z,24.4
2022-09-21T17:15:37.166Z,24.4
2022-09-21T17:20:55.403Z,24.4
2022-09-21T17:26:13.304Z,24.4
2022-09-21T17:31:31.913Z,24.4
2022-09-21T17:36:49.941Z,24.4
2022-09-21T17:42:08.395Z,24.2
2022-09-21T17:47:26.886Z,24
2022-09-21T17:52:45.130Z,23.9
2022-09-21T17:58:03.585Z,23.9
2022-09-21T18:03:22.338Z,23.9
2022-09-21T18:08:40.852Z,24
2022-09-21T18:13:59.318Z,24
2022-09-21T18:19:17.813Z,24
2022-09-21T18:24:36.324Z,24
2022-09-21T18:29:54.752Z,24
2022-09-21T18:35:13.234Z,24
2022-09-21T18:40:31.620Z,24
2022-09-21T18:45:50.138Z,24.1
2022-09-21T18:51:08.585Z,24.1
2022-09-21T18:56:27.376Z,24.1
2022-09-21T19:01:45.668Z,24.1
2022-09-21T19:07:04.269Z,24.1
2022-09-21T19:12:22.784Z,24
2022-09-21T19:17:41.240Z,23.9
2022-09-21T19:22:59.462Z,24
2022-09-21T19:28:17.687Z,24
2022-09-21T19:33:51.602Z,24.1
2022-09-21T19:39:10.197Z,24.1
2022-09-21T19:44:28.457Z,24.1
2022-09-21T19:49:46.915Z,24.2
2022-09-21T19:55:05.697Z,24.2
2022-09-21T20:00:24.192Z,24.3
2022-09-21T20:05:42.670Z,24.4
2022-09-21T20:11:00.885Z,24.4
2022-09-21T20:16:19.792Z,24.4
2022-09-21T20:21:38.603Z,24.5
2022-09-21T20:26:57.044Z,24.6
2022-09-21T20:32:15.799Z,24.6
2022-09-21T20:37:34.541Z,24.5
2022-09-21T20:42:53.036Z,24.5
2022-09-21T20:48:11.563Z,24.6
2022-09-21T20:53:32.697Z,24.5
2022-09-21T20:58:51.493Z,24.5
2022-09-21T21:04:10.522Z,24.5
2022-09-21T21:09:29.495Z,24.5
2022-09-21T21:14:47.966Z,24.5
2022-09-21T21:20:05.887Z,24.4
2022-09-21T21:25:24.344Z,24.4
2022-09-21T21:30:42.840Z,24.4
2022-09-21T21:36:01.058Z,24.3
2022-09-21T21:41:19.537Z,24.3
2022-09-21T21:46:37.454Z,24.4
2022-09-21T21:51:56.247Z,24.4
2022-09-21T21:57:17.145Z,24.4
2022-09-21T22:02:35.808Z,24.4
2022-09-21T22:07:53.919Z,24.4
2022-09-21T22:13:11.827Z,24.4
2022-09-21T22:18:30.049Z,24.4
2022-09-21T22:23:48.580Z,24.4
2022-09-21T22:29:06.770Z,24.4
2022-09-21T22:34:24.698Z,24.4
2022-09-21T22:39:42.934Z,24.5
2022-09-21T22:45:01.696Z,24.5
2022-09-21T22:50:20.476Z,24.5
2022-09-21T22:55:39.034Z,24.5
2022-09-21T23:00:57.582Z,24.5
2022-09-21T23:06:15.581Z,24.5
2022-09-21T23:11:33.524Z,24.5
2022-09-21T23:16:51.710Z,24.5
2022-09-21T23:22:10.185Z,24.5
2022-09-21T23:27:28.704Z,24.5
2022-09-21T23:32:47.174Z,24.5
2022-09-21T23:38:05.942Z,24.5
2022-09-21T23:43:24.454Z,24.5
2022-09-21T23:48:42.427Z,24.5
2022-09-21T23:54:00.926Z,24.5
2022-09-21T23:59:19.171Z,24.5
